Terminal Aerodrome Forecast
Issued by NWS Central Illinois

Home | Current Version | Previous Version | Text Only | Print | Product List | Glossary On
Versions: 1 2 3 4 5 6 7 8 9 10 11 12 13 14 15 16 17 18 19 20 21 22 23 24 25 26 27
000
FTUS43 KILX 071728
TAFPIA
TAF
KPIA 071728Z 0718/0818 03012KT 4SM HZ BKN008
     FM071900 04008KT 5SM HZ SCT008 BKN025
     FM072200 05007KT P6SM BKN050
     FM081400 06005KT 5SM -SHRA BR SCT012 BKN025=

USA.gov is the U.S. government's official web portal to all federal, state and local government web resources and services.